Time;durP1;ratioP1;P1;durP2;ratioP2;P2;SDS_P1;SDS_P2;PMS_P1;PMS_P2;Temp;Humidity;BMP_temperature;BMP_pressure;BME280_temperature;BME280_humidity;BME280_pressure;Samples;Min_cycle;Max_cycle;Signal;HPM_P1;HPM_P2
2023/01/08 00:02:09;;;;;;;7.45;3.20;;;;;;;;;;5041044;28;20067;-76
2023/01/08 00:04:35;;;;;;;12.00;3.72;;;;;;;;;;5055335;28;20024;-76
2023/01/08 00:07:01;;;;;;;7.88;3.40;;;;;;;;;;5029798;28;20037;-77
2023/01/08 00:09:27;;;;;;;11.82;3.50;;;;;;;;;;5032368;28;20022;-76
2023/01/08 00:11:53;;;;;;;16.05;3.17;;;;;;;;;;5039431;28;20051;-76
2023/01/08 00:14:19;;;;;;;8.38;3.45;;;;;;;;;;5040064;28;20083;-77
2023/01/08 00:16:45;;;;;;;11.65;3.92;;;;;;;;;;5043197;28;20025;-77
2023/01/08 00:19:12;;;;;;;11.32;3.53;;;;;;;;;;5040974;28;20025;-76
2023/01/08 00:21:38;;;;;;;11.07;3.28;;;;;;;;;;5040034;28;20017;-76
2023/01/08 00:24:04;;;;;;;11.25;3.53;;;;;;;;;;5040178;28;20563;-77
2023/01/08 00:26:31;;;;;;;13.88;5.20;;;;;;;;;;5030028;28;20037;-77
2023/01/08 00:28:57;;;;;;;13.70;5.22;;;;;;;;;;5040931;28;20029;-77
2023/01/08 00:31:24;;;;;;;15.70;3.47;;;;;;;;;;5046564;28;20101;-76
2023/01/08 00:33:50;;;;;;;13.15;3.75;;;;;;;;;;5033112;28;21769;-76
2023/01/08 00:36:18;;;;;;;15.35;4.13;;;;;;;;;;5045090;28;20029;-76
2023/01/08 00:38:44;;;;;;;16.55;3.80;;;;;;;;;;5048023;28;20068;-77
2023/01/08 00:41:11;;;;;;;13.35;3.33;;;;;;;;;;5040269;28;20033;-76
2023/01/08 00:43:37;;;;;;;18.48;4.03;;;;;;;;;;5037806;28;20555;-77
2023/01/08 00:46:04;;;;;;;16.10;4.82;;;;;;;;;;5053191;28;20029;-76
2023/01/08 00:48:32;;;;;;;9.55;3.28;;;;;;;;;;5035710;28;20036;-76
2023/01/08 00:51:00;;;;;;;12.13;3.53;;;;;;;;;;5059671;28;20043;-77
2023/01/08 00:53:26;;;;;;;15.63;3.97;;;;;;;;;;5036461;28;20037;-78
2023/01/08 00:55:59;;;;;;;12.10;3.30;;;;;;;;;;5060453;28;20017;-78
2023/01/08 00:58:25;;;;;;;10.38;3.85;;;;;;;;;;5040451;28;20030;-78
2023/01/08 01:00:51;;;;;;;11.23;3.90;;;;;;;;;;5037016;28;20119;-74
2023/01/08 01:03:17;;;;;;;12.18;3.92;;;;;;;;;;5031342;28;20582;-76
2023/01/08 01:05:43;;;;;;;12.10;3.83;;;;;;;;;;5041755;28;20029;-76
2023/01/08 01:08:09;;;;;;;19.33;5.13;;;;;;;;;;5036077;28;20022;-79
2023/01/08 01:10:37;;;;;;;12.20;4.50;;;;;;;;;;5041739;28;20113;-78
2023/01/08 01:13:04;;;;;;;10.85;3.13;;;;;;;;;;5048541;28;20025;-78
2023/01/08 01:15:30;;;;;;;12.73;3.63;;;;;;;;;;5032636;28;20049;-76
2023/01/08 01:17:56;;;;;;;11.75;3.42;;;;;;;;;;5030363;28;20382;-77
2023/01/08 01:20:22;;;;;;;13.50;4.43;;;;;;;;;;5048969;28;20036;-76
2023/01/08 01:22:49;;;;;;;15.30;4.15;;;;;;;;;;5055817;28;20029;-75
2023/01/08 01:25:15;;;;;;;11.50;3.13;;;;;;;;;;5046964;28;20491;-77
2023/01/08 01:27:41;;;;;;;7.55;3.53;;;;;;;;;;5035065;28;20017;-76
2023/01/08 01:30:08;;;;;;;11.18;3.60;;;;;;;;;;5046223;28;20079;-76
2023/01/08 01:32:34;;;;;;;13.10;3.53;;;;;;;;;;5029992;28;20090;-77
2023/01/08 01:35:00;;;;;;;14.70;3.92;;;;;;;;;;5027826;28;20046;-76
2023/01/08 01:37:27;;;;;;;9.27;3.55;;;;;;;;;;5039444;28;20017;-77
2023/01/08 01:39:54;;;;;;;8.60;3.03;;;;;;;;;;5033336;28;20017;-77
2023/01/08 01:42:39;;;;;;;12.35;4.00;;;;;;;;;;5031060;28;20024;-76
2023/01/08 01:45:13;;;;;;;8.50;2.83;;;;;;;;;;5036862;28;20398;-76
2023/01/08 01:47:40;;;;;;;12.35;4.00;;;;;;;;;;5033852;28;20056;-76
2023/01/08 01:50:14;;;;;;;9.15;3.15;;;;;;;;;;5032869;28;20096;-77
2023/01/08 01:52:53;;;;;;;15.88;4.95;;;;;;;;;;5041865;28;20029;-77
2023/01/08 01:55:19;;;;;;;13.25;5.20;;;;;;;;;;5043216;28;20017;-77
2023/01/08 01:57:48;;;;;;;13.52;4.50;;;;;;;;;;5031353;28;20104;-76
2023/01/08 02:00:15;;;;;;;22.05;4.55;;;;;;;;;;5041696;28;20040;-77
2023/01/08 02:02:41;;;;;;;12.85;3.70;;;;;;;;;;5054058;28;20071;-76
2023/01/08 02:05:07;;;;;;;12.55;4.43;;;;;;;;;;5028081;28;20025;-76
2023/01/08 02:07:40;;;;;;;15.27;3.90;;;;;;;;;;5047662;28;20470;-77
2023/01/08 02:10:10;;;;;;;17.77;3.13;;;;;;;;;;5036631;28;20371;-76
2023/01/08 02:12:42;;;;;;;14.63;3.35;;;;;;;;;;5040868;28;20064;-77
2023/01/08 02:15:15;;;;;;;16.73;4.25;;;;;;;;;;5042371;28;20029;-76
2023/01/08 02:18:17;;;;;;;14.30;4.28;;;;;;;;;;5035089;28;20030;-76
2023/01/08 02:21:04;;;;;;;14.85;4.55;;;;;;;;;;4978228;28;20054;-77
2023/01/08 02:23:38;;;;;;;9.57;3.17;;;;;;;;;;5033298;28;20120;-76
2023/01/08 02:26:05;;;;;;;15.02;4.80;;;;;;;;;;5058427;28;20033;-77
2023/01/08 02:28:44;;;;;;;16.83;4.03;;;;;;;;;;5038570;28;20104;-76
2023/01/08 02:31:11;;;;;;;15.10;4.50;;;;;;;;;;5029512;28;20025;-76
2023/01/08 02:33:38;;;;;;;11.57;3.22;;;;;;;;;;5033682;28;20048;-76
2023/01/08 02:36:12;;;;;;;14.30;4.20;;;;;;;;;;5032726;28;20548;-77
2023/01/08 02:38:45;;;;;;;22.42;4.38;;;;;;;;;;5038638;28;20030;-76
2023/01/08 02:41:12;;;;;;;13.18;3.25;;;;;;;;;;5043582;28;20409;-76
2023/01/08 02:43:47;;;;;;;20.75;4.65;;;;;;;;;;5035368;28;20387;-76
2023/01/08 02:46:17;;;;;;;13.70;3.88;;;;;;;;;;5044492;28;20032;-77
2023/01/08 02:48:48;;;;;;;19.23;4.00;;;;;;;;;;5040907;28;20022;-76
2023/01/08 02:51:39;;;;;;;18.90;4.25;;;;;;;;;;5040917;28;20041;-76
2023/01/08 02:54:08;;;;;;;15.65;4.40;;;;;;;;;;5045763;28;20047;-76
2023/01/08 02:56:37;;;;;;;17.98;5.07;;;;;;;;;;5034006;28;20021;-76
2023/01/08 02:59:04;;;;;;;16.35;3.92;;;;;;;;;;5038776;28;20100;-77
2023/01/08 03:01:32;;;;;;;12.02;4.10;;;;;;;;;;5046422;28;20495;-77
2023/01/08 03:04:04;;;;;;;11.38;3.55;;;;;;;;;;5048144;28;20033;-76
2023/01/08 03:06:31;;;;;;;14.65;4.75;;;;;;;;;;5052298;28;20024;-77
2023/01/08 03:08:57;;;;;;;9.40;3.88;;;;;;;;;;5039187;28;20032;-77
2023/01/08 03:11:24;;;;;;;16.05;4.28;;;;;;;;;;5038874;28;20433;-76
2023/01/08 03:13:50;;;;;;;13.65;4.07;;;;;;;;;;5049240;28;20099;-77
2023/01/08 03:16:18;;;;;;;15.27;4.10;;;;;;;;;;5033639;28;20025;-77
2023/01/08 03:18:46;;;;;;;12.40;4.18;;;;;;;;;;5052965;28;20033;-76
2023/01/08 03:21:13;;;;;;;13.50;4.72;;;;;;;;;;5038473;28;20128;-77
2023/01/08 03:23:41;;;;;;;9.43;3.88;;;;;;;;;;5036196;28;20111;-76
2023/01/08 03:26:08;;;;;;;13.48;4.00;;;;;;;;;;5040255;28;20044;-76
2023/01/08 03:28:37;;;;;;;13.05;4.05;;;;;;;;;;5045075;28;21288;-78
2023/01/08 03:31:04;;;;;;;11.02;4.03;;;;;;;;;;5050746;28;20025;-77
2023/01/08 03:33:31;;;;;;;15.30;3.80;;;;;;;;;;5050534;28;20494;-77
2023/01/08 03:35:59;;;;;;;15.93;4.78;;;;;;;;;;5042751;28;20092;-76
2023/01/08 03:38:32;;;;;;;11.70;4.95;;;;;;;;;;5040861;28;20362;-76
2023/01/08 03:41:05;;;;;;;18.42;4.03;;;;;;;;;;5047467;28;20045;-76
2023/01/08 03:43:31;;;;;;;17.05;4.32;;;;;;;;;;5041318;28;20036;-76
2023/01/08 03:46:02;;;;;;;15.57;3.70;;;;;;;;;;5039669;28;20053;-76
2023/01/08 03:48:29;;;;;;;15.75;4.40;;;;;;;;;;5042947;28;20447;-77
2023/01/08 03:50:56;;;;;;;13.15;3.80;;;;;;;;;;5046103;28;20537;-76
2023/01/08 03:53:22;;;;;;;15.98;4.57;;;;;;;;;;5033053;28;20131;-76
2023/01/08 03:55:48;;;;;;;20.13;4.38;;;;;;;;;;5034130;28;20025;-77
2023/01/08 03:58:14;;;;;;;17.33;4.30;;;;;;;;;;5032331;28;20029;-75
2023/01/08 04:00:40;;;;;;;13.25;3.72;;;;;;;;;;5034172;28;20081;-77
2023/01/08 04:03:06;;;;;;;22.65;4.20;;;;;;;;;;5036729;28;20288;-77
2023/01/08 04:05:32;;;;;;;21.23;5.55;;;;;;;;;;5046138;28;20033;-76
2023/01/08 04:07:58;;;;;;;11.70;3.83;;;;;;;;;;5038383;28;20033;-76
2023/01/08 04:10:25;;;;;;;12.55;4.63;;;;;;;;;;5045517;28;20033;-75
2023/01/08 04:12:51;;;;;;;17.15;3.88;;;;;;;;;;5041938;28;20100;-76
2023/01/08 04:15:17;;;;;;;16.88;5.18;;;;;;;;;;5032891;28;20064;-76
2023/01/08 04:17:43;;;;;;;12.55;4.03;;;;;;;;;;5029461;28;20029;-76
2023/01/08 04:20:10;;;;;;;18.38;4.80;;;;;;;;;;5036262;28;20053;-75
2023/01/08 04:22:36;;;;;;;14.55;3.97;;;;;;;;;;5048497;28;20021;-76
2023/01/08 04:25:02;;;;;;;36.75;5.65;;;;;;;;;;5046353;28;20064;-76
2023/01/08 04:27:28;;;;;;;21.90;5.57;;;;;;;;;;5029684;28;20025;-76
2023/01/08 04:29:54;;;;;;;19.67;5.00;;;;;;;;;;5030393;28;20068;-76
2023/01/08 04:32:20;;;;;;;12.95;3.75;;;;;;;;;;5033838;28;20040;-76
2023/01/08 04:34:47;;;;;;;16.23;4.43;;;;;;;;;;5044790;28;21224;-76
2023/01/08 04:37:13;;;;;;;13.25;3.40;;;;;;;;;;5054597;28;20018;-76
2023/01/08 04:39:39;;;;;;;19.48;5.95;;;;;;;;;;5041049;28;20365;-77
2023/01/08 04:42:05;;;;;;;19.10;4.22;;;;;;;;;;5037093;28;20068;-76
2023/01/08 04:44:31;;;;;;;22.67;5.43;;;;;;;;;;5035650;28;20036;-76
2023/01/08 04:46:57;;;;;;;14.50;4.93;;;;;;;;;;5043742;28;20116;-76
2023/01/08 04:49:23;;;;;;;19.42;3.97;;;;;;;;;;5039981;28;20041;-76
2023/01/08 04:51:49;;;;;;;14.90;5.50;;;;;;;;;;5052233;28;20021;-77
2023/01/08 04:54:15;;;;;;;17.20;4.82;;;;;;;;;;5042126;28;20044;-76
2023/01/08 04:56:41;;;;;;;11.57;3.63;;;;;;;;;;5039898;28;20072;-76
2023/01/08 04:59:07;;;;;;;18.15;4.75;;;;;;;;;;5046426;28;20032;-76
2023/01/08 05:01:33;;;;;;;18.30;5.28;;;;;;;;;;5056226;28;20100;-76
2023/01/08 05:04:01;;;;;;;15.93;4.05;;;;;;;;;;5044103;28;20032;-76
2023/01/08 05:06:28;;;;;;;14.98;4.60;;;;;;;;;;5032728;28;20029;-76
2023/01/08 05:08:54;;;;;;;12.50;4.55;;;;;;;;;;5042107;28;20484;-76
2023/01/08 05:11:20;;;;;;;13.50;4.20;;;;;;;;;;5043962;28;20028;-76
2023/01/08 05:13:49;;;;;;;13.80;4.28;;;;;;;;;;5036525;28;20468;-76
2023/01/08 05:16:16;;;;;;;16.10;4.22;;;;;;;;;;5031875;28;20032;-76
2023/01/08 05:18:43;;;;;;;25.73;5.30;;;;;;;;;;5038321;28;20029;-76
2023/01/08 05:21:09;;;;;;;15.63;4.18;;;;;;;;;;5033496;28;20048;-76
2023/01/08 05:23:35;;;;;;;12.93;4.13;;;;;;;;;;5036834;28;20333;-76
2023/01/08 05:26:02;;;;;;;20.50;4.20;;;;;;;;;;5041945;28;20028;-77
2023/01/08 05:28:29;;;;;;;13.45;4.55;;;;;;;;;;5036280;28;20484;-77
2023/01/08 05:30:55;;;;;;;19.23;4.00;;;;;;;;;;5040840;28;20023;-76
2023/01/08 05:33:21;;;;;;;15.07;4.97;;;;;;;;;;5044116;28;20032;-77
2023/01/08 05:35:47;;;;;;;17.58;4.35;;;;;;;;;;5040453;28;20033;-76
2023/01/08 05:38:13;;;;;;;16.60;4.28;;;;;;;;;;5034326;28;20025;-76
2023/01/08 05:40:39;;;;;;;13.48;4.03;;;;;;;;;;5040599;28;20032;-77
2023/01/08 05:43:06;;;;;;;11.68;4.15;;;;;;;;;;5056996;28;20036;-76
2023/01/08 05:45:32;;;;;;;18.65;5.10;;;;;;;;;;5061536;28;20040;-76
2023/01/08 05:47:58;;;;;;;16.33;4.60;;;;;;;;;;5077315;28;20025;-76
2023/01/08 05:50:24;;;;;;;13.68;4.13;;;;;;;;;;5043880;28;20124;-76
2023/01/08 05:52:51;;;;;;;14.88;3.80;;;;;;;;;;5057135;28;20025;-76
2023/01/08 05:55:17;;;;;;;25.88;6.72;;;;;;;;;;5035657;28;20064;-76
2023/01/08 05:57:44;;;;;;;17.42;4.20;;;;;;;;;;5036795;28;20020;-77
2023/01/08 06:00:10;;;;;;;17.77;4.35;;;;;;;;;;5035401;28;20029;-75
2023/01/08 06:02:36;;;;;;;16.98;4.38;;;;;;;;;;5051795;28;20033;-76
2023/01/08 06:05:02;;;;;;;14.35;4.50;;;;;;;;;;5042060;28;20364;-76
2023/01/08 06:07:28;;;;;;;17.65;4.60;;;;;;;;;;5037589;28;20415;-75
2023/01/08 06:09:55;;;;;;;21.50;4.15;;;;;;;;;;5043423;28;20033;-76
2023/01/08 06:12:21;;;;;;;10.93;3.78;;;;;;;;;;5038976;28;20479;-77
2023/01/08 06:14:47;;;;;;;16.23;4.68;;;;;;;;;;5045474;28;20168;-75
2023/01/08 06:17:14;;;;;;;14.30;3.80;;;;;;;;;;5046051;28;20026;-77
2023/01/08 06:19:40;;;;;;;11.27;4.72;;;;;;;;;;5043237;28;20021;-76
2023/01/08 06:22:06;;;;;;;16.90;4.50;;;;;;;;;;5055296;28;20025;-76
2023/01/08 06:24:32;;;;;;;12.25;3.55;;;;;;;;;;5045988;28;20036;-76
2023/01/08 06:26:58;;;;;;;16.08;4.28;;;;;;;;;;5045616;28;20380;-76
2023/01/08 06:29:24;;;;;;;17.92;4.28;;;;;;;;;;5039194;28;20398;-75
2023/01/08 06:31:50;;;;;;;12.80;3.70;;;;;;;;;;5051863;28;20387;-76
2023/01/08 06:34:17;;;;;;;10.85;3.65;;;;;;;;;;5043477;28;20487;-75
2023/01/08 06:36:43;;;;;;;12.63;3.67;;;;;;;;;;5045710;28;20037;-76
2023/01/08 06:39:09;;;;;;;15.10;3.40;;;;;;;;;;5044490;28;20018;-76
2023/01/08 06:41:35;;;;;;;17.73;4.28;;;;;;;;;;5053413;28;20071;-76
2023/01/08 06:44:01;;;;;;;15.00;3.67;;;;;;;;;;5039132;28;20033;-76
2023/01/08 06:46:27;;;;;;;14.35;4.25;;;;;;;;;;5046844;28;20029;-76
2023/01/08 06:48:53;;;;;;;13.35;3.58;;;;;;;;;;5035431;28;20067;-76
2023/01/08 06:51:19;;;;;;;16.00;4.70;;;;;;;;;;5033629;28;20064;-76
2023/01/08 06:53:47;;;;;;;9.95;3.10;;;;;;;;;;5039822;28;20479;-78
2023/01/08 06:56:13;;;;;;;17.13;3.78;;;;;;;;;;5033421;28;20039;-76
2023/01/08 06:58:39;;;;;;;14.27;4.88;;;;;;;;;;5037826;28;20021;-75
2023/01/08 07:01:05;;;;;;;10.82;4.60;;;;;;;;;;5044018;28;20033;-76
2023/01/08 07:03:31;;;;;;;11.30;3.20;;;;;;;;;;5033182;28;20026;-76
2023/01/08 07:05:57;;;;;;;11.93;3.78;;;;;;;;;;5039881;28;20029;-75
2023/01/08 07:08:23;;;;;;;9.50;4.05;;;;;;;;;;5034393;28;20025;-76
2023/01/08 07:10:50;;;;;;;10.13;3.20;;;;;;;;;;5034032;28;20040;-75
2023/01/08 07:13:16;;;;;;;7.50;2.83;;;;;;;;;;5032769;28;20039;-77
2023/01/08 07:15:42;;;;;;;7.68;2.85;;;;;;;;;;5043701;28;20025;-76
2023/01/08 07:18:09;;;;;;;6.15;2.47;;;;;;;;;;5039702;28;20076;-78
2023/01/08 07:20:36;;;;;;;4.22;2.13;;;;;;;;;;5040828;28;20021;-77
2023/01/08 07:23:03;;;;;;;7.05;2.42;;;;;;;;;;5037913;28;20071;-77
2023/01/08 07:25:30;;;;;;;9.32;2.22;;;;;;;;;;5038992;28;20032;-78
2023/01/08 07:27:56;;;;;;;4.05;2.10;;;;;;;;;;5035151;28;20024;-77
2023/01/08 07:30:23;;;;;;;5.50;2.10;;;;;;;;;;5034966;28;20021;-78
2023/01/08 07:32:49;;;;;;;7.13;1.98;;;;;;;;;;5035236;28;20097;-77
2023/01/08 07:35:15;;;;;;;6.50;2.28;;;;;;;;;;5042669;28;20059;-78
2023/01/08 07:37:41;;;;;;;3.15;1.70;;;;;;;;;;5033002;28;20030;-78
2023/01/08 07:40:11;;;;;;;9.38;2.22;;;;;;;;;;5031692;28;20025;-78
2023/01/08 07:42:38;;;;;;;4.80;1.80;;;;;;;;;;5056774;28;20032;-78
2023/01/08 07:45:04;;;;;;;4.10;1.75;;;;;;;;;;5035039;28;20041;-78
2023/01/08 07:47:30;;;;;;;3.13;2.10;;;;;;;;;;5034614;28;20104;-77
2023/01/08 07:49:56;;;;;;;5.38;2.63;;;;;;;;;;5037459;28;20049;-78
2023/01/08 07:52:22;;;;;;;4.82;2.30;;;;;;;;;;5032694;28;20025;-78
2023/01/08 07:54:49;;;;;;;4.82;1.95;;;;;;;;;;5034629;28;20036;-78
2023/01/08 07:57:15;;;;;;;7.10;2.00;;;;;;;;;;5036996;28;20098;-78
2023/01/08 07:59:41;;;;;;;5.15;2.50;;;;;;;;;;5037137;28;20368;-78
2023/01/08 08:02:07;;;;;;;9.00;2.63;;;;;;;;;;5042077;28;20465;-78
2023/01/08 08:04:33;;;;;;;6.13;2.20;;;;;;;;;;5045381;28;20022;-78
2023/01/08 08:06:59;;;;;;;8.20;2.50;;;;;;;;;;5041636;28;20033;-77
2023/01/08 08:09:25;;;;;;;6.22;2.60;;;;;;;;;;5033545;28;20093;-78
2023/01/08 08:11:51;;;;;;;5.13;2.63;;;;;;;;;;5037366;28;20021;-78
2023/01/08 08:14:17;;;;;;;6.30;3.15;;;;;;;;;;5038935;28;20021;-78
2023/01/08 08:16:43;;;;;;;5.55;2.60;;;;;;;;;;5038130;28;20061;-78
2023/01/08 08:19:11;;;;;;;6.68;2.50;;;;;;;;;;5033523;28;20040;-78
2023/01/08 08:21:37;;;;;;;6.78;2.63;;;;;;;;;;5032747;28;20025;-78
2023/01/08 08:24:03;;;;;;;8.35;3.65;;;;;;;;;;5036575;28;20097;-77
2023/01/08 08:26:30;;;;;;;7.43;3.15;;;;;;;;;;5041212;28;20035;-78
2023/01/08 08:28:56;;;;;;;7.53;2.88;;;;;;;;;;5039747;28;20555;-78
2023/01/08 08:31:22;;;;;;;6.30;2.45;;;;;;;;;;5038206;28;20432;-78
2023/01/08 08:33:48;;;;;;;6.28;2.45;;;;;;;;;;5036633;28;20112;-78
2023/01/08 08:36:14;;;;;;;10.38;3.58;;;;;;;;;;5034909;28;20025;-78
2023/01/08 08:38:40;;;;;;;4.75;2.17;;;;;;;;;;5040168;28;20049;-76
2023/01/08 08:41:06;;;;;;;11.05;3.05;;;;;;;;;;5037070;28;20025;-76
2023/01/08 08:43:32;;;;;;;11.05;2.70;;;;;;;;;;5036619;28;20108;-78
2023/01/08 08:45:58;;;;;;;6.60;1.90;;;;;;;;;;5034045;28;20029;-76
2023/01/08 08:48:24;;;;;;;4.97;2.45;;;;;;;;;;5035480;28;20041;-75
2023/01/08 08:50:51;;;;;;;5.40;2.50;;;;;;;;;;5037210;28;20049;-78
2023/01/08 08:53:17;;;;;;;10.18;2.50;;;;;;;;;;5031266;28;20553;-77
2023/01/08 08:55:43;;;;;;;6.75;2.05;;;;;;;;;;5040678;28;20116;-78
2023/01/08 08:58:11;;;;;;;5.82;2.30;;;;;;;;;;5050674;28;20029;-75
2023/01/08 09:00:38;;;;;;;5.20;2.40;;;;;;;;;;5034266;28;20032;-76
2023/01/08 09:03:04;;;;;;;5.93;3.10;;;;;;;;;;5056819;28;20029;-76
2023/01/08 09:05:30;;;;;;;6.78;2.83;;;;;;;;;;5031882;28;20018;-75
2023/01/08 09:07:57;;;;;;;7.43;2.03;;;;;;;;;;5034223;28;20026;-76
2023/01/08 09:10:23;;;;;;;3.67;2.00;;;;;;;;;;5038417;28;20032;-78
2023/01/08 09:12:49;;;;;;;8.60;2.47;;;;;;;;;;5032093;28;20018;-76
2023/01/08 09:15:15;;;;;;;5.22;2.30;;;;;;;;;;5037155;28;20033;-76
2023/01/08 09:17:41;;;;;;;11.00;2.60;;;;;;;;;;5044990;28;20384;-79
2023/01/08 09:20:07;;;;;;;4.88;2.33;;;;;;;;;;5049429;28;20048;-78
2023/01/08 09:22:33;;;;;;;8.45;2.40;;;;;;;;;;5037309;28;20021;-79
2023/01/08 09:25:00;;;;;;;7.60;2.80;;;;;;;;;;5047300;28;20029;-78
2023/01/08 09:27:26;;;;;;;4.22;2.30;;;;;;;;;;5044015;28;20469;-77
2023/01/08 09:29:52;;;;;;;7.40;2.30;;;;;;;;;;5049516;28;20029;-78
2023/01/08 09:32:18;;;;;;;10.65;2.50;;;;;;;;;;5051631;28;20036;-75
2023/01/08 09:34:44;;;;;;;2.85;1.70;;;;;;;;;;5031080;28;20537;-76
2023/01/08 09:37:10;;;;;;;5.10;1.90;;;;;;;;;;5038965;28;20043;-79
2023/01/08 09:39:36;;;;;;;3.05;1.83;;;;;;;;;;5049799;28;20022;-76
2023/01/08 09:42:04;;;;;;;8.55;2.60;;;;;;;;;;5039589;28;20041;-77
2023/01/08 09:44:41;;;;;;;4.43;2.00;;;;;;;;;;5038511;28;20029;-76
2023/01/08 09:47:20;;;;;;;3.95;2.50;;;;;;;;;;5039455;28;20112;-77
2023/01/08 09:49:47;;;;;;;2.40;1.73;;;;;;;;;;5040026;28;20045;-76
2023/01/08 09:52:14;;;;;;;6.93;2.22;;;;;;;;;;5039478;28;20067;-79
2023/01/08 09:54:40;;;;;;;11.48;2.65;;;;;;;;;;5048618;28;20037;-79
2023/01/08 09:57:10;;;;;;;3.88;2.28;;;;;;;;;;5049522;28;20001;-76
2023/01/08 09:59:36;;;;;;;7.25;2.60;;;;;;;;;;5038877;28;20025;-77
2023/01/08 10:02:03;;;;;;;11.00;2.28;;;;;;;;;;5038361;28;20031;-78
2023/01/08 10:04:30;;;;;;;7.28;2.78;;;;;;;;;;5043777;28;20024;-76
2023/01/08 10:07:01;;;;;;;6.80;2.70;;;;;;;;;;5043055;28;20026;-76
2023/01/08 10:09:28;;;;;;;3.13;2.10;;;;;;;;;;5047430;28;20095;-77
2023/01/08 10:11:56;;;;;;;8.40;2.70;;;;;;;;;;5039699;28;20115;-77
2023/01/08 10:14:24;;;;;;;8.93;2.10;;;;;;;;;;5048311;28;20083;-77
2023/01/08 10:16:52;;;;;;;6.68;2.30;;;;;;;;;;5049300;28;20103;-77
2023/01/08 10:19:18;;;;;;;5.68;2.30;;;;;;;;;;5055514;28;20027;-76
2023/01/08 10:21:44;;;;;;;5.43;1.88;;;;;;;;;;5043898;28;20120;-76
2023/01/08 10:24:10;;;;;;;4.05;1.92;;;;;;;;;;5053774;28;20039;-78
2023/01/08 10:26:38;;;;;;;2.13;1.70;;;;;;;;;;5036293;28;20053;-77
2023/01/08 10:29:08;;;;;;;2.78;1.77;;;;;;;;;;5043031;28;20041;-77
2023/01/08 10:31:38;;;;;;;10.48;2.70;;;;;;;;;;5028300;28;20035;-76
2023/01/08 10:34:10;;;;;;;4.25;1.92;;;;;;;;;;5050940;28;20057;-77
2023/01/08 10:36:40;;;;;;;4.65;1.90;;;;;;;;;;5037841;28;20026;-76
2023/01/08 10:39:06;;;;;;;3.40;1.75;;;;;;;;;;5037802;28;20033;-76
2023/01/08 10:41:37;;;;;;;2.65;1.63;;;;;;;;;;5047675;28;20114;-76
2023/01/08 10:44:05;;;;;;;4.32;2.13;;;;;;;;;;5039127;28;20221;-76
2023/01/08 10:46:51;;;;;;;2.95;1.50;;;;;;;;;;5039343;28;20048;-77
2023/01/08 10:49:30;;;;;;;7.97;2.63;;;;;;;;;;5043359;28;20049;-77
2023/01/08 10:51:57;;;;;;;4.43;1.90;;;;;;;;;;5044857;28;20377;-76
2023/01/08 10:54:26;;;;;;;4.40;1.85;;;;;;;;;;5056657;28;20029;-77
2023/01/08 10:56:52;;;;;;;6.53;2.28;;;;;;;;;;5049559;28;20017;-77
2023/01/08 10:59:19;;;;;;;3.53;1.75;;;;;;;;;;5045730;28;20756;-78
2023/01/08 11:01:49;;;;;;;11.70;2.83;;;;;;;;;;5044892;28;20420;-80
2023/01/08 11:04:21;;;;;;;3.65;1.90;;;;;;;;;;5054664;28;20079;-77
2023/01/08 11:06:47;;;;;;;4.35;2.00;;;;;;;;;;5041132;28;20121;-79
2023/01/08 11:09:19;;;;;;;1.90;1.63;;;;;;;;;;5046619;28;20029;-79
2023/01/08 11:11:45;;;;;;;2.28;1.80;;;;;;;;;;5058712;28;20032;-79
2023/01/08 11:14:25;;;;;;;3.42;2.08;;;;;;;;;;5048771;28;20029;-80
2023/01/08 11:16:52;;;;;;;3.90;2.03;;;;;;;;;;5044853;28;20140;-78
2023/01/08 11:19:24;;;;;;;4.05;2.13;;;;;;;;;;5064022;28;20029;-78
2023/01/08 11:21:56;;;;;;;3.55;1.90;;;;;;;;;;5044125;28;20502;-80
2023/01/08 11:24:27;;;;;;;4.45;2.10;;;;;;;;;;5063829;28;20902;-79
2023/01/08 11:26:57;;;;;;;2.78;1.70;;;;;;;;;;5062686;28;20021;-78
2023/01/08 11:29:43;;;;;;;3.45;2.28;;;;;;;;;;5047392;28;20112;-79
2023/01/08 11:32:09;;;;;;;;;;;;;;;;;;5049287;28;20137;-79
2023/01/08 11:34:35;;;;;;;;;;;;;;;;;;5046863;28;20046;-78
2023/01/08 11:37:15;;;;;;;4.53;1.90;;;;;;;;;;5047063;28;19916;-78
2023/01/08 11:39:41;;;;;;;6.47;2.22;;;;;;;;;;5060044;28;20048;-79
2023/01/08 11:42:16;;;;;;;4.63;2.30;;;;;;;;;;5044373;28;20413;-79
2023/01/08 11:45:03;;;;;;;3.38;1.60;;;;;;;;;;5049463;28;20036;-78
2023/01/08 11:47:29;;;;;;;3.97;1.70;;;;;;;;;;5054252;28;20020;-79
2023/01/08 11:50:14;;;;;;;4.47;2.00;;;;;;;;;;5047200;28;20053;-79
2023/01/08 11:53:00;;;;;;;5.07;2.17;;;;;;;;;;5046041;28;20021;-79
2023/01/08 11:55:31;;;;;;;7.63;2.05;;;;;;;;;;5035214;28;20505;-79
2023/01/08 11:58:23;;;;;;;3.38;1.80;;;;;;;;;;5046266;28;20033;-79
2023/01/08 12:00:56;;;;;;;5.30;2.28;;;;;;;;;;5043197;28;20028;-80
2023/01/08 12:03:29;;;;;;;6.35;2.63;;;;;;;;;;5040677;28;20021;-80
2023/01/08 12:06:18;;;;;;;6.63;2.38;;;;;;;;;;5042560;28;20112;-80
2023/01/08 12:08:59;;;;;;;10.00;2.08;;;;;;;;;;5033099;28;20033;-79
2023/01/08 12:11:31;;;;;;;5.85;2.20;;;;;;;;;;5041181;28;20064;-80
2023/01/08 12:14:09;;;;;;;4.88;2.00;;;;;;;;;;5048320;28;20033;-79
2023/01/08 12:16:54;;;;;;;4.88;2.20;;;;;;;;;;5053338;28;20055;-80
2023/01/08 12:19:26;;;;;;;11.68;2.53;;;;;;;;;;5048840;28;20036;-80
2023/01/08 12:21:52;;;;;;;4.85;2.70;;;;;;;;;;5048762;28;20889;-80
2023/01/08 12:24:21;;;;;;;3.33;1.90;;;;;;;;;;5045300;28;20037;-79
2023/01/08 12:26:47;;;;;;;8.52;2.33;;;;;;;;;;5049481;28;20025;-80
2023/01/08 12:29:19;;;;;;;8.48;2.55;;;;;;;;;;5044770;28;20065;-79
2023/01/08 12:32:01;;;;;;;7.38;2.50;;;;;;;;;;5058831;28;20071;-79
2023/01/08 12:34:39;;;;;;;13.15;2.63;;;;;;;;;;5044763;28;20376;-79
2023/01/08 12:37:11;;;;;;;5.05;3.35;;;;;;;;;;5042582;28;20132;-80
2023/01/08 12:39:47;;;;;;;4.63;2.10;;;;;;;;;;5043124;28;20064;-79
2023/01/08 12:42:16;;;;;;;4.72;2.20;;;;;;;;;;5039421;28;20030;-79
2023/01/08 12:44:44;;;;;;;9.50;2.50;;;;;;;;;;5040048;28;20240;-78
2023/01/08 12:47:13;;;;;;;10.63;2.47;;;;;;;;;;5039835;28;20120;-80
2023/01/08 12:49:45;;;;;;;4.90;2.35;;;;;;;;;;5057524;28;21249;-79
2023/01/08 12:52:15;;;;;;;6.40;2.55;;;;;;;;;;5042647;28;20024;-80
2023/01/08 12:55:02;;;;;;;5.25;2.42;;;;;;;;;;5039748;28;20033;-79
2023/01/08 12:57:32;;;;;;;8.20;3.45;;;;;;;;;;5041520;28;20025;-78
2023/01/08 13:00:04;;;;;;;7.15;2.30;;;;;;;;;;5043256;28;20033;-79
2023/01/08 13:02:44;;;;;;;6.00;2.45;;;;;;;;;;5040999;28;20029;-80
2023/01/08 13:05:15;;;;;;;9.70;3.05;;;;;;;;;;5041539;28;20107;-79
2023/01/08 13:07:43;;;;;;;2.90;2.20;;;;;;;;;;5050360;28;20021;-79
2023/01/08 13:10:19;;;;;;;7.82;2.80;;;;;;;;;;5043507;28;20029;-80
2023/01/08 13:12:50;;;;;;;6.68;2.10;;;;;;;;;;5041288;28;20029;-79
2023/01/08 13:15:21;;;;;;;6.25;2.78;;;;;;;;;;5042788;28;20025;-80
2023/01/08 13:17:50;;;;;;;6.93;2.70;;;;;;;;;;5042144;28;20017;-80
2023/01/08 13:20:27;;;;;;;5.70;2.38;;;;;;;;;;5042192;28;20025;-80
2023/01/08 13:22:54;;;;;;;5.97;2.65;;;;;;;;;;5060239;28;20029;-78
2023/01/08 13:25:21;;;;;;;8.70;3.65;;;;;;;;;;5040805;28;20025;-80
2023/01/08 13:27:47;;;;;;;6.35;2.80;;;;;;;;;;5043488;28;20029;-80
2023/01/08 13:30:33;;;;;;;7.70;2.58;;;;;;;;;;5045757;28;20041;-79
2023/01/08 13:32:59;;;;;;;9.88;2.97;;;;;;;;;;5037784;28;20036;-79
2023/01/08 13:35:28;;;;;;;7.43;2.88;;;;;;;;;;5047799;28;20958;-80
2023/01/08 13:38:09;;;;;;;7.68;2.65;;;;;;;;;;5046136;28;20031;-80
2023/01/08 13:40:35;;;;;;;5.20;2.97;;;;;;;;;;5044031;28;20112;-81
2023/01/08 13:43:02;;;;;;;5.57;2.70;;;;;;;;;;5044884;28;20456;-80
2023/01/08 13:45:29;;;;;;;6.35;3.03;;;;;;;;;;5042609;28;20029;-80
2023/01/08 13:47:56;;;;;;;6.65;2.60;;;;;;;;;;5043879;28;20032;-81
2023/01/08 13:50:24;;;;;;;7.15;2.53;;;;;;;;;;5044208;28;20506;-81
2023/01/08 13:52:57;;;;;;;8.25;3.08;;;;;;;;;;5060466;28;20041;-80
2023/01/08 13:55:33;;;;;;;7.65;2.60;;;;;;;;;;5045721;28;20433;-80
2023/01/08 13:58:02;;;;;;;6.18;2.40;;;;;;;;;;5044615;28;20136;-80
2023/01/08 14:00:37;;;;;;;7.78;2.72;;;;;;;;;;5043087;28;20018;-80
2023/01/08 14:03:03;;;;;;;6.90;2.63;;;;;;;;;;5040772;28;20031;-80
2023/01/08 14:05:33;;;;;;;4.47;2.50;;;;;;;;;;5042734;28;20025;-80
2023/01/08 14:08:00;;;;;;;4.82;2.88;;;;;;;;;;5045442;28;20025;-80
2023/01/08 14:10:27;;;;;;;6.90;3.72;;;;;;;;;;5054071;28;20064;-79
2023/01/08 14:13:06;;;;;;;6.47;2.38;;;;;;;;;;5058736;28;20029;-80
2023/01/08 14:15:33;;;;;;;5.75;2.47;;;;;;;;;;5047260;28;20878;-80
2023/01/08 14:18:00;;;;;;;7.03;2.83;;;;;;;;;;5042772;28;20029;-80
2023/01/08 14:20:31;;;;;;;8.65;2.60;;;;;;;;;;5044723;28;20040;-81
2023/01/08 14:22:58;;;;;;;5.70;3.20;;;;;;;;;;5048167;28;20029;-80
2023/01/08 14:25:24;;;;;;;5.72;2.42;;;;;;;;;;5043690;28;20778;-81
2023/01/08 14:27:54;;;;;;;9.88;4.65;;;;;;;;;;5041850;28;20151;-80
2023/01/08 14:30:20;;;;;;;5.50;2.70;;;;;;;;;;5058556;28;20167;-80
2023/01/08 14:32:46;;;;;;;8.23;2.63;;;;;;;;;;5045336;28;20487;-80
2023/01/08 14:35:21;;;;;;;6.22;2.75;;;;;;;;;;5047397;28;20028;-80
2023/01/08 14:37:47;;;;;;;11.52;3.40;;;;;;;;;;5038463;28;20029;-79
2023/01/08 14:40:14;;;;;;;6.40;2.67;;;;;;;;;;5053555;28;20444;-79
2023/01/08 14:42:42;;;;;;;4.25;2.15;;;;;;;;;;5041965;28;20024;-79
2023/01/08 14:45:19;;;;;;;6.05;3.30;;;;;;;;;;5040730;28;20187;-80
2023/01/08 14:47:48;;;;;;;6.45;2.50;;;;;;;;;;5046582;28;20029;-80